createdAt,value
2018-07-05T00:01:42.336Z,6.70
2018-07-05T00:04:15.802Z,6.13
2018-07-05T00:06:55.343Z,7.00
2018-07-05T00:09:34.999Z,7.43
2018-07-05T00:12:14.554Z,6.23
2018-07-05T00:14:54.188Z,7.10
2018-07-05T00:17:33.695Z,8.03
2018-07-05T00:20:13.390Z,7.10
2018-07-05T00:22:53.011Z,6.63
2018-07-05T00:25:32.460Z,7.80
2018-07-05T00:28:11.958Z,6.07
2018-07-05T00:30:51.641Z,6.33
2018-07-05T00:33:31.267Z,6.10
2018-07-05T00:36:10.697Z,6.40
2018-07-05T00:38:44.390Z,6.90
2018-07-05T00:41:23.829Z,7.40
2018-07-05T00:44:03.656Z,7.80
2018-07-05T00:46:43.328Z,7.40
2018-07-05T00:49:22.888Z,6.60
2018-07-05T00:52:02.580Z,7.60
2018-07-05T00:54:42.309Z,6.37
2018-07-05T00:57:21.883Z,7.60
2018-07-05T01:00:01.488Z,6.90
2018-07-05T01:02:41.071Z,6.80
2018-07-05T01:05:20.719Z,6.97
2018-07-05T01:08:00.157Z,6.60
2018-07-05T01:10:39.823Z,6.57
2018-07-05T01:13:19.212Z,6.80
2018-07-05T01:15:58.818Z,6.47
2018-07-05T01:18:38.723Z,6.97
2018-07-05T01:21:18.244Z,7.27
2018-07-05T01:23:57.903Z,7.63
2018-07-05T01:26:37.498Z,7.70
2018-07-05T01:29:17.236Z,7.80
2018-07-05T01:31:56.814Z,8.30
2018-07-05T01:34:36.376Z,7.60
2018-07-05T01:37:15.980Z,8.50
2018-07-05T01:39:55.775Z,9.17
2018-07-05T01:42:35.182Z,8.43
2018-07-05T01:45:15.077Z,7.73
2018-07-05T01:47:54.927Z,8.90
2018-07-05T01:50:34.542Z,8.27
2018-07-05T01:53:14.112Z,9.87
2018-07-05T01:55:47.662Z,9.37
2018-07-05T01:58:27.204Z,9.20
2018-07-05T02:01:06.879Z,8.03
2018-07-05T02:03:46.521Z,8.53
2018-07-05T02:06:26.015Z,9.07
2018-07-05T02:09:05.554Z,8.27
2018-07-05T02:11:45.145Z,8.03
2018-07-05T02:14:18.507Z,8.37
2018-07-05T02:16:58.165Z,8.50
2018-07-05T02:19:37.912Z,8.73
2018-07-05T02:22:17.491Z,8.53
2018-07-05T02:24:56.932Z,7.30
2018-07-05T02:27:36.707Z,9.13
2018-07-05T02:30:16.241Z,7.20
2018-07-05T02:32:55.775Z,6.40
2018-07-05T02:35:35.483Z,7.80
2018-07-05T02:38:20.622Z,7.80
2018-07-05T02:41:00.417Z,7.73
2018-07-05T02:43:40.052Z,7.60
2018-07-05T02:46:19.679Z,7.60
2018-07-05T02:48:59.379Z,6.93
2018-07-05T02:51:39.129Z,6.83
2018-07-05T02:54:18.939Z,7.13
2018-07-05T02:56:58.631Z,9.53
2018-07-05T02:59:38.428Z,6.80
2018-07-05T03:02:18.280Z,7.37
2018-07-05T03:04:57.792Z,7.13
2018-07-05T03:07:37.250Z,8.20
2018-07-05T03:10:16.739Z,7.17
2018-07-05T03:12:56.385Z,7.90
2018-07-05T03:15:35.979Z,6.80
2018-07-05T03:18:15.615Z,6.93
2018-07-05T03:20:55.228Z,7.13
2018-07-05T03:23:35.387Z,7.40
2018-07-05T03:26:15.035Z,6.40
2018-07-05T03:28:48.573Z,6.60
2018-07-05T03:31:28.200Z,6.80
2018-07-05T03:34:01.677Z,7.50
2018-07-05T03:36:41.214Z,6.03
2018-07-05T03:39:20.899Z,5.70
2018-07-05T03:42:00.624Z,6.10
2018-07-05T03:44:40.385Z,6.00
2018-07-05T03:47:20.030Z,6.50
2018-07-05T03:49:59.640Z,6.57
2018-07-05T03:52:39.277Z,6.37
2018-07-05T03:55:18.815Z,6.00
2018-07-05T03:57:58.495Z,6.50
2018-07-05T04:00:38.148Z,5.90
2018-07-05T04:03:17.847Z,5.97
2018-07-05T04:05:51.418Z,6.03
2018-07-05T04:08:30.903Z,6.13
2018-07-05T04:11:10.637Z,5.83
2018-07-05T04:13:50.375Z,6.30
2018-07-05T04:16:29.900Z,6.50
2018-07-05T04:19:09.395Z,7.03
2018-07-05T04:21:48.891Z,6.50
2018-07-05T04:24:22.379Z,6.50
2018-07-05T04:27:01.963Z,6.83
2018-07-05T04:29:35.465Z,6.70
2018-07-05T04:32:15.047Z,7.00
2018-07-05T04:34:54.608Z,6.87
2018-07-05T04:37:34.244Z,7.30
2018-07-05T04:40:13.845Z,7.20
2018-07-05T04:42:53.347Z,5.80
2018-07-05T04:45:26.834Z,6.43
2018-07-05T04:48:06.465Z,6.50
2018-07-05T04:50:46.197Z,6.33
2018-07-05T04:53:25.778Z,7.83
2018-07-05T04:56:05.414Z,7.50
2018-07-05T04:58:46.440Z,6.67
2018-07-05T05:01:26.052Z,6.90
2018-07-05T05:04:05.792Z,7.13
2018-07-05T05:06:45.534Z,7.20
2018-07-05T05:09:25.123Z,7.80
2018-07-05T05:12:05.021Z,7.97
2018-07-05T05:14:44.459Z,7.80
2018-07-05T05:17:24.097Z,8.17
2018-07-05T05:20:03.872Z,7.17
2018-07-05T05:22:43.284Z,8.23
2018-07-05T05:25:16.862Z,7.07
2018-07-05T05:27:56.427Z,7.03
2018-07-05T05:30:36.087Z,7.07
2018-07-05T05:33:15.693Z,7.20
2018-07-05T05:35:55.397Z,8.07
2018-07-05T05:38:34.987Z,7.70
2018-07-05T05:41:08.447Z,8.30
2018-07-05T05:43:48.099Z,7.50
2018-07-05T05:46:27.707Z,7.93
2018-07-05T05:49:07.397Z,6.60
2018-07-05T05:51:47.125Z,8.57
2018-07-05T05:54:20.623Z,6.77
2018-07-05T05:56:54.308Z,7.70
2018-07-05T05:59:33.853Z,6.83
2018-07-05T06:02:13.364Z,6.93
2018-07-05T06:04:53.177Z,8.50
2018-07-05T06:07:32.924Z,6.93
2018-07-05T06:10:12.652Z,7.10
2018-07-05T06:12:52.162Z,7.07
2018-07-05T06:15:31.784Z,6.97
2018-07-05T06:18:11.456Z,6.83
2018-07-05T06:20:51.291Z,6.97
2018-07-05T06:23:31.083Z,7.30
2018-07-05T06:26:10.650Z,7.37
2018-07-05T06:28:50.272Z,6.87
2018-07-05T06:31:29.976Z,6.73
2018-07-05T06:34:10.553Z,5.80
2018-07-05T06:36:50.467Z,6.30
2018-07-05T06:39:30.226Z,5.77
2018-07-05T06:42:10.370Z,5.80
2018-07-05T06:44:44.611Z,6.03
2018-07-05T06:47:24.358Z,6.43
2018-07-05T06:49:58.026Z,5.40
2018-07-05T06:52:37.696Z,6.20
2018-07-05T06:55:17.303Z,5.80
2018-07-05T06:57:50.865Z,6.40
2018-07-05T07:00:31.723Z,6.50
2018-07-05T07:03:11.273Z,6.60
2018-07-05T07:05:50.721Z,8.00
2018-07-05T07:08:30.476Z,6.40
2018-07-05T07:11:04.143Z,6.80
2018-07-05T07:13:43.825Z,6.57
2018-07-05T07:16:23.628Z,5.23
2018-07-05T07:18:57.282Z,5.40
2018-07-05T07:21:36.897Z,5.40
2018-07-05T07:24:16.484Z,5.57
2018-07-05T07:26:56.212Z,5.50
2018-07-05T07:29:29.819Z,4.90
2018-07-05T07:32:09.548Z,6.47
2018-07-05T07:34:49.116Z,5.50
2018-07-05T07:37:28.612Z,5.47
2018-07-05T07:40:08.365Z,5.40
2018-07-05T07:42:35.591Z,5.23
2018-07-05T07:45:02.798Z,4.97
2018-07-05T07:47:29.945Z,4.60
2018-07-05T07:49:57.084Z,4.20
2018-07-05T07:52:24.225Z,4.07
2018-07-05T07:54:51.343Z,4.63
2018-07-05T07:57:18.480Z,5.80
2018-07-05T07:59:45.886Z,4.33
2018-07-05T08:02:13.015Z,6.73
2018-07-05T08:04:40.412Z,4.83
2018-07-05T08:07:07.553Z,4.40
2018-07-05T08:09:34.966Z,5.20
2018-07-05T08:12:02.133Z,5.17
2018-07-05T08:14:30.180Z,4.70
2018-07-05T08:16:57.324Z,4.73
2018-07-05T08:19:24.737Z,5.43
2018-07-05T08:21:51.912Z,4.83
2018-07-05T08:24:19.027Z,4.90
2018-07-05T08:26:46.221Z,4.40
2018-07-05T08:29:13.336Z,5.17
2018-07-05T08:31:40.578Z,4.53
2018-07-05T08:34:07.785Z,4.80
2018-07-05T08:36:35.012Z,5.40
2018-07-05T08:39:02.180Z,4.43
2018-07-05T08:41:29.350Z,4.57
2018-07-05T08:43:56.544Z,4.00
2018-07-05T08:46:23.691Z,4.77
2018-07-05T08:48:51.087Z,4.08
2018-07-05T08:51:18.218Z,4.60
2018-07-05T08:53:46.008Z,5.23
2018-07-05T08:56:13.591Z,4.60
2018-07-05T08:58:40.896Z,4.57
2018-07-05T09:01:08.072Z,4.10
2018-07-05T09:03:35.385Z,4.40
2018-07-05T09:06:02.962Z,4.83
2018-07-05T09:08:31.028Z,4.83
2018-07-05T09:10:58.506Z,4.77
2018-07-05T09:13:25.660Z,4.73
2018-07-05T09:15:53.554Z,3.90
2018-07-05T09:18:21.326Z,4.17
2018-07-05T09:20:48.425Z,4.33
2018-07-05T09:23:15.672Z,5.17
2018-07-05T09:25:42.745Z,4.20
2018-07-05T09:28:09.909Z,4.50
2018-07-05T09:30:37.057Z,4.57
2018-07-05T09:33:04.187Z,4.43
2018-07-05T09:35:32.129Z,4.33
2018-07-05T09:37:59.264Z,3.93
2018-07-05T09:40:26.464Z,4.77
2018-07-05T09:42:53.724Z,4.00
2018-07-05T09:45:21.240Z,5.23
2018-07-05T09:47:48.387Z,4.97
2018-07-05T09:50:15.524Z,3.90
2018-07-05T09:52:42.721Z,4.07
2018-07-05T09:55:10.891Z,5.03
2018-07-05T09:57:38.170Z,5.20
2018-07-05T10:00:05.695Z,4.77
2018-07-05T10:02:33.121Z,4.72
2018-07-05T10:05:00.774Z,4.60
2018-07-05T10:07:27.888Z,5.70
2018-07-05T10:09:55.040Z,4.80
2018-07-05T10:12:22.241Z,4.50
2018-07-05T10:14:49.504Z,4.60
2018-07-05T10:17:16.704Z,4.60
2018-07-05T10:19:43.839Z,4.90
2018-07-05T10:22:10.968Z,4.80
2018-07-05T10:24:38.120Z,4.60
2018-07-05T10:27:05.373Z,10.20
2018-07-05T10:29:44.986Z,4.77
2018-07-05T10:32:24.534Z,4.27
2018-07-05T10:34:52.207Z,4.30
2018-07-05T10:37:22.415Z,3.73
2018-07-05T10:40:02.108Z,4.07
2018-07-05T10:42:41.423Z,4.10
2018-07-05T10:45:20.776Z,3.90
2018-07-05T10:48:00.932Z,4.00
2018-07-05T10:50:40.621Z,5.07
2018-07-05T10:53:20.305Z,4.40
2018-07-05T10:56:00.060Z,5.05
2018-07-05T10:58:39.592Z,5.20
2018-07-05T11:01:19.080Z,5.13
2018-07-05T11:03:52.620Z,4.67
2018-07-05T11:06:32.268Z,4.13
2018-07-05T11:09:12.026Z,3.93
2018-07-05T11:11:45.626Z,4.30
2018-07-05T11:14:19.103Z,4.23
2018-07-05T11:16:58.378Z,4.07
2018-07-05T11:19:37.982Z,4.17
2018-07-05T11:22:17.555Z,4.70
2018-07-05T11:24:57.481Z,4.57
2018-07-05T11:27:37.148Z,4.00
2018-07-05T11:30:16.618Z,3.90
2018-07-05T11:32:56.300Z,4.30
2018-07-05T11:35:35.755Z,4.37
2018-07-05T11:38:16.351Z,4.90
2018-07-05T11:40:55.912Z,4.53
2018-07-05T11:43:35.411Z,5.30
2018-07-05T11:46:14.987Z,3.77
2018-07-05T11:48:56.062Z,5.37
2018-07-05T11:51:36.197Z,4.40
2018-07-05T11:54:09.773Z,4.20
2018-07-05T11:56:49.634Z,4.50
2018-07-05T11:59:29.619Z,4.33
2018-07-05T12:02:09.213Z,4.10
2018-07-05T12:04:49.226Z,4.53
2018-07-05T12:07:29.051Z,4.20
2018-07-05T12:10:08.709Z,5.00
2018-07-05T12:12:48.508Z,5.20
2018-07-05T12:15:28.169Z,5.17
2018-07-05T12:18:08.020Z,4.50
2018-07-05T12:20:47.538Z,5.10
2018-07-05T12:23:27.210Z,4.63
2018-07-05T12:26:06.887Z,4.60
2018-07-05T12:28:46.484Z,4.43
2018-07-05T12:31:20.083Z,4.17
2018-07-05T12:33:59.618Z,4.87
2018-07-05T12:36:39.128Z,4.63
2018-07-05T12:39:18.885Z,4.10
2018-07-05T12:41:58.867Z,5.17
2018-07-05T12:44:38.354Z,5.00
2018-07-05T12:47:18.011Z,5.50
2018-07-05T12:49:57.721Z,6.30
2018-07-05T12:52:37.343Z,5.20
2018-07-05T12:55:11.289Z,4.67
2018-07-05T12:57:51.349Z,4.90
2018-07-05T13:00:31.056Z,4.40
2018-07-05T13:03:10.629Z,5.50
2018-07-05T13:05:50.247Z,4.70
2018-07-05T13:08:29.746Z,4.50
2018-07-05T13:11:09.380Z,4.80
2018-07-05T13:13:49.910Z,4.07
2018-07-05T13:16:29.626Z,5.20
2018-07-05T13:19:09.372Z,5.20
2018-07-05T13:21:48.932Z,5.07
2018-07-05T13:24:28.557Z,4.53
2018-07-05T13:27:08.153Z,5.10
2018-07-05T13:29:47.808Z,4.90
2018-07-05T13:32:27.247Z,5.20
2018-07-05T13:35:06.706Z,4.80
2018-07-05T13:37:46.276Z,4.63
2018-07-05T13:40:25.819Z,4.63
2018-07-05T13:43:05.547Z,4.80
2018-07-05T13:45:45.320Z,5.50
2018-07-05T13:48:24.787Z,5.07
2018-07-05T13:51:04.397Z,5.10
2018-07-05T13:53:37.862Z,4.83
2018-07-05T13:56:17.520Z,4.97
2018-07-05T13:58:57.164Z,4.97
2018-07-05T14:01:36.916Z,4.80
2018-07-05T14:04:16.810Z,5.47
2018-07-05T14:06:56.365Z,5.73
2018-07-05T14:09:35.848Z,4.57
2018-07-05T14:14:31.705Z,4.90
2018-07-05T14:17:11.309Z,4.90
2018-07-05T14:19:51.741Z,4.80
2018-07-05T14:22:32.516Z,4.80
2018-07-05T14:25:12.277Z,5.40
2018-07-05T14:27:52.495Z,4.57
2018-07-05T14:30:32.308Z,5.00
2018-07-05T14:33:05.832Z,5.10
2018-07-05T14:35:45.310Z,5.17
2018-07-05T14:38:24.978Z,5.00
2018-07-05T14:41:04.519Z,4.90
2018-07-05T14:43:44.232Z,4.80
2018-07-05T14:46:24.018Z,5.50
2018-07-05T14:49:03.662Z,5.20
2018-07-05T14:51:37.226Z,5.00
2018-07-05T14:54:17.302Z,4.83
2018-07-05T14:56:57.054Z,4.70
2018-07-05T14:59:36.604Z,4.30
2018-07-05T15:02:16.246Z,5.17
2018-07-05T15:04:56.848Z,5.47
2018-07-05T15:07:36.261Z,5.00
2018-07-05T15:10:16.035Z,5.20
2018-07-05T15:12:55.696Z,5.13
2018-07-05T15:15:35.393Z,4.80
2018-07-05T15:18:15.133Z,4.30
2018-07-05T15:20:54.899Z,4.83
2018-07-05T15:23:34.682Z,4.30
2018-07-05T15:26:14.628Z,4.13
2018-07-05T15:28:54.517Z,4.40
2018-07-05T15:31:34.235Z,4.30
2018-07-05T15:34:14.012Z,4.93
2018-07-05T15:36:53.894Z,4.85
2018-07-05T15:39:34.558Z,4.40
2018-07-05T15:42:15.433Z,4.47
2018-07-05T15:44:55.022Z,4.30
2018-07-05T15:47:35.032Z,4.70
2018-07-05T15:50:14.886Z,6.77
2018-07-05T15:52:56.318Z,4.40
2018-07-05T15:55:35.939Z,4.27
2018-07-05T15:58:15.663Z,4.40
2018-07-05T16:00:49.265Z,3.92
2018-07-05T16:03:29.020Z,4.33
2018-07-05T16:06:08.754Z,4.10
2018-07-05T16:08:48.432Z,4.40
2018-07-05T16:11:27.827Z,3.60
2018-07-05T16:14:07.441Z,3.90
2018-07-05T16:16:47.084Z,3.93
2018-07-05T16:19:26.815Z,2.97
2018-07-05T16:22:06.467Z,3.62
2018-07-05T16:24:46.149Z,3.67
2018-07-05T16:27:25.800Z,3.33
2018-07-05T16:30:05.679Z,4.30
2018-07-05T16:32:45.482Z,3.57
2018-07-05T16:35:25.321Z,3.10
2018-07-05T16:38:04.936Z,3.20
2018-07-05T16:40:44.668Z,3.80
2018-07-05T16:43:18.297Z,3.40
2018-07-05T16:45:58.059Z,3.73
2018-07-05T16:48:38.492Z,2.50
2018-07-05T16:51:18.009Z,2.57
2018-07-05T16:53:57.744Z,2.50
2018-07-05T16:56:37.304Z,2.60
2018-07-05T16:59:16.862Z,3.10
2018-07-05T17:01:58.257Z,2.30
2018-07-05T17:04:37.884Z,3.03
2018-07-05T17:07:17.663Z,4.10
2018-07-05T17:09:57.303Z,3.27
2018-07-05T17:12:36.859Z,2.50
2018-07-05T17:15:16.513Z,2.90
2018-07-05T17:17:56.230Z,2.47
2018-07-05T17:20:35.895Z,2.40
2018-07-05T17:23:15.447Z,2.10
2018-07-05T17:25:55.200Z,2.87
2018-07-05T17:28:34.960Z,2.40
2018-07-05T17:31:14.783Z,2.50
2018-07-05T17:33:54.636Z,2.30
2018-07-05T17:36:34.433Z,3.17
2018-07-05T17:39:13.996Z,2.67
2018-07-05T17:41:53.850Z,2.60
2018-07-05T17:44:33.336Z,2.60
2018-07-05T17:47:13.205Z,2.70
2018-07-05T17:49:53.344Z,2.57
2018-07-05T17:52:32.991Z,2.60
2018-07-05T17:55:12.843Z,2.40
2018-07-05T17:57:52.669Z,2.30
2018-07-05T18:00:32.797Z,3.73
2018-07-05T18:03:12.267Z,2.47
2018-07-05T18:05:52.083Z,2.50
2018-07-05T18:08:31.592Z,2.37
2018-07-05T18:11:05.212Z,2.60
2018-07-05T18:13:39.126Z,3.00
2018-07-05T18:16:18.687Z,2.70
2018-07-05T18:18:58.447Z,2.30
2018-07-05T18:21:38.209Z,2.67
2018-07-05T18:24:11.608Z,3.90
2018-07-05T18:26:51.451Z,3.63
2018-07-05T18:29:31.117Z,2.40
2018-07-05T18:32:10.647Z,2.57
2018-07-05T18:34:50.223Z,2.60
2018-07-05T18:37:23.762Z,4.30
2018-07-05T18:40:03.220Z,2.60
2018-07-05T18:42:42.763Z,2.33
2018-07-05T18:45:16.475Z,2.57
2018-07-05T18:47:56.122Z,2.83
2018-07-05T18:50:35.770Z,3.40
2018-07-05T18:53:15.369Z,3.03
2018-07-05T18:55:55.010Z,5.63
2018-07-05T18:58:34.620Z,3.40
2018-07-05T19:01:14.354Z,10.33
2018-07-05T19:03:53.832Z,5.50
2018-07-05T19:06:34.323Z,5.03
2018-07-05T19:09:13.886Z,4.97
2018-07-05T19:11:53.764Z,5.50
2018-07-05T19:14:27.347Z,3.70
2018-07-05T19:17:07.659Z,3.23
2018-07-05T19:19:47.299Z,3.03
2018-07-05T19:22:27.113Z,3.20
2018-07-05T19:25:06.831Z,4.20
2018-07-05T19:27:47.880Z,4.00
2018-07-05T19:30:27.359Z,4.10
2018-07-05T19:33:06.975Z,4.90
2018-07-05T19:35:46.619Z,3.90
2018-07-05T19:38:26.390Z,4.30
2018-07-05T19:41:06.161Z,5.87
2018-07-05T19:43:45.923Z,10.50
2018-07-05T19:46:25.999Z,6.90
2018-07-05T19:49:05.744Z,4.67
2018-07-05T19:51:45.541Z,3.97
2018-07-05T19:54:25.001Z,4.23
2018-07-05T19:57:04.517Z,3.83
2018-07-05T19:59:44.127Z,4.17
2018-07-05T20:02:24.028Z,3.23
2018-07-05T20:05:03.813Z,3.47
2018-07-05T20:07:43.403Z,3.47
2018-07-05T20:10:23.123Z,4.70
2018-07-05T20:13:02.785Z,3.70
2018-07-05T20:15:42.503Z,3.90
2018-07-05T20:18:22.044Z,2.90
2018-07-05T20:21:01.839Z,4.00
2018-07-05T20:23:41.483Z,3.80
2018-07-05T20:26:21.501Z,4.13
2018-07-05T20:29:01.109Z,4.35
2018-07-05T20:31:40.564Z,3.60
2018-07-05T20:34:20.107Z,4.40
2018-07-05T20:36:59.857Z,3.83
2018-07-05T20:39:39.313Z,3.87
2018-07-05T20:42:18.704Z,3.50
2018-07-05T20:44:59.398Z,3.47
2018-07-05T20:47:32.868Z,4.00
2018-07-05T20:50:12.436Z,3.83
2018-07-05T20:52:52.072Z,4.20
2018-07-05T20:55:31.950Z,3.57
2018-07-05T20:58:11.697Z,3.97
2018-07-05T21:00:51.590Z,4.63
2018-07-05T21:03:31.395Z,4.80
2018-07-05T21:06:10.860Z,4.10
2018-07-05T21:08:50.395Z,4.00
2018-07-05T21:11:29.919Z,4.10
2018-07-05T21:14:09.571Z,3.93
2018-07-05T21:16:49.575Z,3.83
2018-07-05T21:19:29.367Z,4.10
2018-07-05T21:22:09.326Z,4.00
2018-07-05T21:24:49.091Z,4.20
2018-07-05T21:27:28.994Z,4.17
2018-07-05T21:30:08.974Z,4.50
2018-07-05T21:32:48.891Z,3.87
2018-07-05T21:35:28.673Z,4.70
2018-07-05T21:38:08.395Z,4.53
2018-07-05T21:40:48.230Z,4.53
2018-07-05T21:43:28.771Z,4.40
2018-07-05T21:46:08.510Z,4.17
2018-07-05T21:48:48.268Z,4.90
2018-07-05T21:51:27.835Z,4.30
2018-07-05T21:54:08.478Z,4.07
2018-07-05T21:56:48.195Z,4.10
2018-07-05T21:59:27.912Z,4.80
2018-07-05T22:02:07.582Z,3.83
2018-07-05T22:04:47.161Z,4.60
2018-07-05T22:07:26.631Z,4.17
2018-07-05T22:10:00.301Z,3.93
2018-07-05T22:12:39.859Z,4.70
2018-07-05T22:15:19.468Z,4.47
2018-07-05T22:18:04.471Z,5.23
2018-07-05T22:20:49.773Z,5.10
2018-07-05T22:23:34.895Z,5.07
2018-07-05T22:26:20.116Z,5.00
2018-07-05T22:29:58.119Z,5.43
2018-07-05T22:32:37.914Z,4.80
2018-07-05T22:35:17.674Z,4.40
2018-07-05T22:37:57.251Z,5.33
2018-07-05T22:40:36.735Z,4.43
2018-07-05T22:43:16.374Z,4.70
2018-07-05T22:45:55.833Z,4.20
2018-07-05T22:48:35.317Z,4.40
2018-07-05T22:51:09.105Z,4.60
2018-07-05T22:53:48.890Z,4.73
2018-07-05T22:56:28.629Z,6.03
2018-07-05T22:59:08.341Z,4.63
2018-07-05T23:01:47.962Z,4.90
2018-07-05T23:04:27.590Z,5.17
2018-07-05T23:07:07.092Z,4.67
2018-07-05T23:09:47.003Z,4.30
2018-07-05T23:12:26.640Z,5.03
2018-07-05T23:15:06.256Z,4.80
2018-07-05T23:17:46.296Z,4.97
2018-07-05T23:20:26.419Z,4.80
2018-07-05T23:23:06.269Z,4.27
2018-07-05T23:25:45.912Z,4.93
2018-07-05T23:28:19.460Z,5.17
2018-07-05T23:30:59.239Z,4.23
2018-07-05T23:33:38.639Z,4.40
2018-07-05T23:36:12.168Z,4.60
2018-07-05T23:38:51.925Z,4.10
2018-07-05T23:41:31.564Z,4.70
2018-07-05T23:44:05.103Z,3.90
2018-07-05T23:46:38.716Z,4.47
2018-07-05T23:49:18.407Z,4.00
2018-07-05T23:51:58.171Z,4.27
2018-07-05T23:54:37.659Z,3.67
2018-07-05T23:57:17.378Z,4.43
2018-07-05T23:59:56.780Z,4.10
